sensor_id;sensor_type;location;lat;lon;timestamp;P1;durP1;ratioP1;P2;durP2;ratioP2
84996;SDS011;75312;47.528;19.016;2024-01-10T00:00:30;10.93;;;10.23;;
84996;SDS011;75312;47.528;19.016;2024-01-10T00:01:03;10.50;;;9.80;;
84996;SDS011;75312;47.528;19.016;2024-01-10T00:01:34;10.97;;;10.30;;
84996;SDS011;75312;47.528;19.016;2024-01-10T00:02:07;11.03;;;10.27;;
84996;SDS011;75312;47.528;19.016;2024-01-10T00:02:39;11.23;;;10.33;;
84996;SDS011;75312;47.528;19.016;2024-01-10T00:03:10;10.33;;;9.53;;
84996;SDS011;75312;47.528;19.016;2024-01-10T00:03:41;11.00;;;10.20;;
84996;SDS011;75312;47.528;19.016;2024-01-10T00:04:11;11.13;;;10.13;;
84996;SDS011;75312;47.528;19.016;2024-01-10T00:04:42;10.97;;;9.93;;
84996;SDS011;75312;47.528;19.016;2024-01-10T00:05:12;10.60;;;9.53;;
84996;SDS011;75312;47.528;19.016;2024-01-10T00:05:43;10.63;;;9.60;;
84996;SDS011;75312;47.528;19.016;2024-01-10T00:06:14;10.83;;;9.80;;
84996;SDS011;75312;47.528;19.016;2024-01-10T00:06:44;11.67;;;10.67;;
84996;SDS011;75312;47.528;19.016;2024-01-10T00:07:17;10.57;;;9.67;;
84996;SDS011;75312;47.528;19.016;2024-01-10T00:07:48;10.70;;;9.97;;
84996;SDS011;75312;47.528;19.016;2024-01-10T00:08:21;10.43;;;9.70;;
84996;SDS011;75312;47.528;19.016;2024-01-10T00:08:52;10.30;;;9.47;;
84996;SDS011;75312;47.528;19.016;2024-01-10T00:09:24;10.90;;;9.93;;
84996;SDS011;75312;47.528;19.016;2024-01-10T00:09:55;10.80;;;9.83;;
84996;SDS011;75312;47.528;19.016;2024-01-10T00:10:30;10.73;;;9.77;;
84996;SDS011;75312;47.528;19.016;2024-01-10T00:11:01;11.47;;;10.33;;
84996;SDS011;75312;47.528;19.016;2024-01-10T00:11:34;12.00;;;10.63;;
84996;SDS011;75312;47.528;19.016;2024-01-10T00:12:08;11.80;;;10.57;;
84996;SDS011;75312;47.528;19.016;2024-01-10T00:12:38;11.57;;;10.53;;
84996;SDS011;75312;47.528;19.016;2024-01-10T00:13:12;11.37;;;10.30;;
84996;SDS011;75312;47.528;19.016;2024-01-10T00:13:47;11.20;;;10.23;;
84996;SDS011;75312;47.528;19.016;2024-01-10T00:14:18;11.17;;;10.27;;
84996;SDS011;75312;47.528;19.016;2024-01-10T00:14:49;11.10;;;10.27;;
84996;SDS011;75312;47.528;19.016;2024-01-10T00:15:19;10.90;;;10.07;;
84996;SDS011;75312;47.528;19.016;2024-01-10T00:15:50;10.70;;;9.93;;
84996;SDS011;75312;47.528;19.016;2024-01-10T00:16:20;11.13;;;10.27;;
84996;SDS011;75312;47.528;19.016;2024-01-10T00:16:51;11.07;;;10.20;;
84996;SDS011;75312;47.528;19.016;2024-01-10T00:17:22;10.57;;;9.77;;
84996;SDS011;75312;47.528;19.016;2024-01-10T00:17:52;10.90;;;10.03;;
84996;SDS011;75312;47.528;19.016;2024-01-10T00:18:23;10.93;;;10.10;;
84996;SDS011;75312;47.528;19.016;2024-01-10T00:18:53;11.27;;;10.40;;
84996;SDS011;75312;47.528;19.016;2024-01-10T00:19:24;11.47;;;10.43;;
84996;SDS011;75312;47.528;19.016;2024-01-10T00:19:54;11.43;;;10.23;;
84996;SDS011;75312;47.528;19.016;2024-01-10T00:20:27;12.17;;;10.63;;
84996;SDS011;75312;47.528;19.016;2024-01-10T00:20:58;11.97;;;10.47;;
84996;SDS011;75312;47.528;19.016;2024-01-10T00:21:28;11.90;;;10.47;;
84996;SDS011;75312;47.528;19.016;2024-01-10T00:21:59;12.87;;;11.37;;
84996;SDS011;75312;47.528;19.016;2024-01-10T00:22:32;12.23;;;10.87;;
84996;SDS011;75312;47.528;19.016;2024-01-10T00:23:02;11.73;;;10.57;;
84996;SDS011;75312;47.528;19.016;2024-01-10T00:23:33;12.00;;;10.87;;
84996;SDS011;75312;47.528;19.016;2024-01-10T00:24:04;11.47;;;10.23;;
84996;SDS011;75312;47.528;19.016;2024-01-10T00:24:35;11.77;;;10.63;;
84996;SDS011;75312;47.528;19.016;2024-01-10T00:25:07;11.73;;;10.50;;
84996;SDS011;75312;47.528;19.016;2024-01-10T00:25:38;12.10;;;10.67;;
84996;SDS011;75312;47.528;19.016;2024-01-10T00:26:11;12.17;;;10.80;;
84996;SDS011;75312;47.528;19.016;2024-01-10T00:26:44;12.03;;;10.80;;
84996;SDS011;75312;47.528;19.016;2024-01-10T00:27:15;11.47;;;10.43;;
84996;SDS011;75312;47.528;19.016;2024-01-10T00:27:45;10.53;;;9.63;;
84996;SDS011;75312;47.528;19.016;2024-01-10T00:28:16;11.63;;;10.60;;
84996;SDS011;75312;47.528;19.016;2024-01-10T00:28:48;11.47;;;10.43;;
84996;SDS011;75312;47.528;19.016;2024-01-10T00:29:20;11.13;;;10.10;;
84996;SDS011;75312;47.528;19.016;2024-01-10T00:29:51;11.10;;;10.27;;
84996;SDS011;75312;47.528;19.016;2024-01-10T00:30:22;10.63;;;9.87;;
84996;SDS011;75312;47.528;19.016;2024-01-10T00:30:55;10.70;;;9.90;;
84996;SDS011;75312;47.528;19.016;2024-01-10T00:31:28;11.53;;;10.73;;
84996;SDS011;75312;47.528;19.016;2024-01-10T00:31:58;11.33;;;10.57;;
84996;SDS011;75312;47.528;19.016;2024-01-10T00:32:29;11.00;;;10.27;;
84996;SDS011;75312;47.528;19.016;2024-01-10T00:33:03;10.47;;;9.77;;
84996;SDS011;75312;47.528;19.016;2024-01-10T00:33:34;11.00;;;10.20;;
84996;SDS011;75312;47.528;19.016;2024-01-10T00:34:04;11.53;;;10.67;;
84996;SDS011;75312;47.528;19.016;2024-01-10T00:34:35;10.73;;;9.87;;
84996;SDS011;75312;47.528;19.016;2024-01-10T00:35:06;10.43;;;9.60;;
84996;SDS011;75312;47.528;19.016;2024-01-10T00:35:36;10.67;;;9.77;;
84996;SDS011;75312;47.528;19.016;2024-01-10T00:36:07;11.63;;;10.60;;
84996;SDS011;75312;47.528;19.016;2024-01-10T00:36:40;10.97;;;9.90;;
84996;SDS011;75312;47.528;19.016;2024-01-10T00:37:11;10.80;;;9.80;;
84996;SDS011;75312;47.528;19.016;2024-01-10T00:37:41;10.13;;;9.30;;
84996;SDS011;75312;47.528;19.016;2024-01-10T00:38:13;11.50;;;10.53;;
84996;SDS011;75312;47.528;19.016;2024-01-10T00:38:43;12.23;;;11.13;;
84996;SDS011;75312;47.528;19.016;2024-01-10T00:39:14;11.23;;;10.27;;
84996;SDS011;75312;47.528;19.016;2024-01-10T00:39:45;10.43;;;9.57;;
84996;SDS011;75312;47.528;19.016;2024-01-10T00:40:18;11.50;;;10.60;;
84996;SDS011;75312;47.528;19.016;2024-01-10T00:40:49;10.73;;;9.93;;
84996;SDS011;75312;47.528;19.016;2024-01-10T00:41:20;10.73;;;9.87;;
84996;SDS011;75312;47.528;19.016;2024-01-10T00:41:50;10.90;;;10.00;;
84996;SDS011;75312;47.528;19.016;2024-01-10T00:42:21;10.90;;;10.10;;
84996;SDS011;75312;47.528;19.016;2024-01-10T00:42:52;11.00;;;10.17;;
84996;SDS011;75312;47.528;19.016;2024-01-10T00:43:22;11.90;;;10.93;;
84996;SDS011;75312;47.528;19.016;2024-01-10T00:43:53;11.17;;;10.27;;
84996;SDS011;75312;47.528;19.016;2024-01-10T00:44:23;11.60;;;10.77;;
84996;SDS011;75312;47.528;19.016;2024-01-10T00:44:54;11.53;;;10.70;;
84996;SDS011;75312;47.528;19.016;2024-01-10T00:45:24;11.47;;;10.67;;
84996;SDS011;75312;47.528;19.016;2024-01-10T00:45:55;12.03;;;11.23;;
84996;SDS011;75312;47.528;19.016;2024-01-10T00:46:29;11.63;;;10.87;;
84996;SDS011;75312;47.528;19.016;2024-01-10T00:47:01;11.27;;;10.43;;
84996;SDS011;75312;47.528;19.016;2024-01-10T00:47:35;12.03;;;11.13;;
84996;SDS011;75312;47.528;19.016;2024-01-10T00:48:06;12.63;;;11.63;;
84996;SDS011;75312;47.528;19.016;2024-01-10T00:48:39;11.33;;;10.47;;
84996;SDS011;75312;47.528;19.016;2024-01-10T00:49:10;11.47;;;10.63;;
84996;SDS011;75312;47.528;19.016;2024-01-10T00:49:40;12.50;;;11.63;;
84996;SDS011;75312;47.528;19.016;2024-01-10T00:50:14;12.50;;;11.60;;
84996;SDS011;75312;47.528;19.016;2024-01-10T00:50:44;11.53;;;10.80;;
84996;SDS011;75312;47.528;19.016;2024-01-10T00:51:17;11.60;;;10.83;;
84996;SDS011;75312;47.528;19.016;2024-01-10T00:51:48;11.60;;;11.00;;
84996;SDS011;75312;47.528;19.016;2024-01-10T00:52:19;11.70;;;11.00;;
84996;SDS011;75312;47.528;19.016;2024-01-10T00:52:49;11.33;;;10.63;;
84996;SDS011;75312;47.528;19.016;2024-01-10T00:53:28;11.93;;;11.13;;
84996;SDS011;75312;47.528;19.016;2024-01-10T00:53:59;12.37;;;11.43;;
84996;SDS011;75312;47.528;19.016;2024-01-10T00:54:29;12.10;;;11.03;;
84996;SDS011;75312;47.528;19.016;2024-01-10T00:55:02;12.30;;;11.27;;
84996;SDS011;75312;47.528;19.016;2024-01-10T00:55:33;12.43;;;11.43;;
84996;SDS011;75312;47.528;19.016;2024-01-10T00:56:04;12.43;;;11.57;;
84996;SDS011;75312;47.528;19.016;2024-01-10T00:56:35;11.87;;;11.03;;
84996;SDS011;75312;47.528;19.016;2024-01-10T00:57:06;11.17;;;10.30;;
84996;SDS011;75312;47.528;19.016;2024-01-10T00:57:39;11.87;;;10.83;;
84996;SDS011;75312;47.528;19.016;2024-01-10T00:58:09;11.63;;;10.73;;
84996;SDS011;75312;47.528;19.016;2024-01-10T00:58:40;11.40;;;10.50;;
84996;SDS011;75312;47.528;19.016;2024-01-10T00:59:11;11.27;;;10.47;;
84996;SDS011;75312;47.528;19.016;2024-01-10T00:59:44;11.80;;;11.13;;
84996;SDS011;75312;47.528;19.016;2024-01-10T01:00:19;12.03;;;11.33;;
84996;SDS011;75312;47.528;19.016;2024-01-10T01:00:50;12.27;;;11.27;;
84996;SDS011;75312;47.528;19.016;2024-01-10T01:01:23;12.47;;;11.23;;
84996;SDS011;75312;47.528;19.016;2024-01-10T01:01:54;12.90;;;11.43;;
84996;SDS011;75312;47.528;19.016;2024-01-10T01:02:28;12.87;;;11.50;;
84996;SDS011;75312;47.528;19.016;2024-01-10T01:02:58;13.40;;;12.03;;
84996;SDS011;75312;47.528;19.016;2024-01-10T01:03:29;12.67;;;11.50;;
84996;SDS011;75312;47.528;19.016;2024-01-10T01:04:02;12.27;;;11.17;;
84996;SDS011;75312;47.528;19.016;2024-01-10T01:04:35;13.33;;;12.13;;
84996;SDS011;75312;47.528;19.016;2024-01-10T01:05:07;12.93;;;11.80;;
84996;SDS011;75312;47.528;19.016;2024-01-10T01:05:38;12.67;;;11.63;;
84996;SDS011;75312;47.528;19.016;2024-01-10T01:06:11;12.43;;;11.50;;
84996;SDS011;75312;47.528;19.016;2024-01-10T01:06:42;12.17;;;11.20;;
84996;SDS011;75312;47.528;19.016;2024-01-10T01:07:15;13.10;;;12.03;;
84996;SDS011;75312;47.528;19.016;2024-01-10T01:07:48;12.57;;;11.60;;
84996;SDS011;75312;47.528;19.016;2024-01-10T01:08:21;13.20;;;12.10;;
84996;SDS011;75312;47.528;19.016;2024-01-10T01:08:51;12.93;;;11.83;;
84996;SDS011;75312;47.528;19.016;2024-01-10T01:09:22;12.73;;;11.53;;
84996;SDS011;75312;47.528;19.016;2024-01-10T01:09:52;12.93;;;11.73;;
84996;SDS011;75312;47.528;19.016;2024-01-10T01:10:26;13.00;;;11.90;;
84996;SDS011;75312;47.528;19.016;2024-01-10T01:10:56;12.90;;;11.87;;
84996;SDS011;75312;47.528;19.016;2024-01-10T01:11:29;12.60;;;11.70;;
84996;SDS011;75312;47.528;19.016;2024-01-10T01:12:00;13.20;;;12.40;;
84996;SDS011;75312;47.528;19.016;2024-01-10T01:12:33;12.90;;;12.17;;
84996;SDS011;75312;47.528;19.016;2024-01-10T01:13:03;12.10;;;11.33;;
84996;SDS011;75312;47.528;19.016;2024-01-10T01:13:36;12.53;;;11.67;;
84996;SDS011;75312;47.528;19.016;2024-01-10T01:14:07;12.67;;;11.77;;
84996;SDS011;75312;47.528;19.016;2024-01-10T01:14:37;12.60;;;11.77;;
84996;SDS011;75312;47.528;19.016;2024-01-10T01:15:10;12.57;;;11.73;;
84996;SDS011;75312;47.528;19.016;2024-01-10T01:15:44;12.63;;;11.80;;
84996;SDS011;75312;47.528;19.016;2024-01-10T01:16:17;13.07;;;12.03;;
84996;SDS011;75312;47.528;19.016;2024-01-10T01:16:50;13.03;;;12.07;;
84996;SDS011;75312;47.528;19.016;2024-01-10T01:17:20;12.90;;;12.00;;
84996;SDS011;75312;47.528;19.016;2024-01-10T01:17:51;12.00;;;11.13;;
84996;SDS011;75312;47.528;19.016;2024-01-10T01:18:26;12.63;;;11.60;;
84996;SDS011;75312;47.528;19.016;2024-01-10T01:18:59;12.43;;;11.53;;
84996;SDS011;75312;47.528;19.016;2024-01-10T01:19:32;12.50;;;11.87;;
84996;SDS011;75312;47.528;19.016;2024-01-10T01:20:05;11.77;;;11.27;;
84996;SDS011;75312;47.528;19.016;2024-01-10T01:20:36;12.20;;;11.67;;
84996;SDS011;75312;47.528;19.016;2024-01-10T01:21:09;13.27;;;12.63;;
84996;SDS011;75312;47.528;19.016;2024-01-10T01:21:42;12.80;;;12.00;;
84996;SDS011;75312;47.528;19.016;2024-01-10T01:22:13;12.53;;;11.60;;
84996;SDS011;75312;47.528;19.016;2024-01-10T01:22:44;12.73;;;11.70;;
84996;SDS011;75312;47.528;19.016;2024-01-10T01:23:14;13.40;;;12.33;;
84996;SDS011;75312;47.528;19.016;2024-01-10T01:23:45;13.80;;;12.70;;
84996;SDS011;75312;47.528;19.016;2024-01-10T01:24:21;14.13;;;13.00;;
84996;SDS011;75312;47.528;19.016;2024-01-10T01:24:52;14.27;;;13.17;;
84996;SDS011;75312;47.528;19.016;2024-01-10T01:25:22;14.90;;;13.73;;
84996;SDS011;75312;47.528;19.016;2024-01-10T01:25:55;14.60;;;13.20;;
84996;SDS011;75312;47.528;19.016;2024-01-10T01:26:28;14.73;;;13.43;;
84996;SDS011;75312;47.528;19.016;2024-01-10T01:26:59;14.77;;;13.33;;
84996;SDS011;75312;47.528;19.016;2024-01-10T01:27:30;14.77;;;13.40;;
84996;SDS011;75312;47.528;19.016;2024-01-10T01:28:00;14.23;;;13.00;;
84996;SDS011;75312;47.528;19.016;2024-01-10T01:28:33;13.53;;;12.57;;
84996;SDS011;75312;47.528;19.016;2024-01-10T01:29:06;13.73;;;12.90;;
84996;SDS011;75312;47.528;19.016;2024-01-10T01:29:38;13.87;;;12.97;;
84996;SDS011;75312;47.528;19.016;2024-01-10T01:30:11;14.03;;;13.17;;
84996;SDS011;75312;47.528;19.016;2024-01-10T01:30:42;13.10;;;12.30;;
84996;SDS011;75312;47.528;19.016;2024-01-10T01:31:15;13.43;;;12.50;;
84996;SDS011;75312;47.528;19.016;2024-01-10T01:31:49;13.53;;;12.57;;
84996;SDS011;75312;47.528;19.016;2024-01-10T01:32:20;14.17;;;13.10;;
84996;SDS011;75312;47.528;19.016;2024-01-10T01:32:51;14.80;;;13.57;;
84996;SDS011;75312;47.528;19.016;2024-01-10T01:33:22;14.23;;;13.00;;
84996;SDS011;75312;47.528;19.016;2024-01-10T01:33:53;13.90;;;12.80;;
84996;SDS011;75312;47.528;19.016;2024-01-10T01:34:23;13.60;;;12.50;;
84996;SDS011;75312;47.528;19.016;2024-01-10T01:34:54;14.10;;;12.87;;
84996;SDS011;75312;47.528;19.016;2024-01-10T01:35:27;14.90;;;13.50;;
84996;SDS011;75312;47.528;19.016;2024-01-10T01:36:03;16.17;;;14.60;;
84996;SDS011;75312;47.528;19.016;2024-01-10T01:36:33;15.30;;;13.87;;
84996;SDS011;75312;47.528;19.016;2024-01-10T01:37:04;15.37;;;14.13;;
84996;SDS011;75312;47.528;19.016;2024-01-10T01:37:35;15.00;;;14.07;;
84996;SDS011;75312;47.528;19.016;2024-01-10T01:38:05;15.30;;;14.20;;
84996;SDS011;75312;47.528;19.016;2024-01-10T01:38:36;15.07;;;13.80;;
84996;SDS011;75312;47.528;19.016;2024-01-10T01:39:06;15.77;;;14.53;;
84996;SDS011;75312;47.528;19.016;2024-01-10T01:39:37;15.53;;;14.33;;
84996;SDS011;75312;47.528;19.016;2024-01-10T01:40:08;15.80;;;14.57;;
84996;SDS011;75312;47.528;19.016;2024-01-10T01:40:39;16.63;;;15.33;;
84996;SDS011;75312;47.528;19.016;2024-01-10T01:41:09;16.37;;;15.13;;
84996;SDS011;75312;47.528;19.016;2024-01-10T01:41:40;15.63;;;14.43;;
84996;SDS011;75312;47.528;19.016;2024-01-10T01:42:13;16.83;;;15.57;;
84996;SDS011;75312;47.528;19.016;2024-01-10T01:42:45;16.33;;;15.13;;
84996;SDS011;75312;47.528;19.016;2024-01-10T01:43:19;16.47;;;15.27;;
84996;SDS011;75312;47.528;19.016;2024-01-10T01:43:50;15.90;;;14.57;;
84996;SDS011;75312;47.528;19.016;2024-01-10T01:44:21;16.63;;;15.30;;
84996;SDS011;75312;47.528;19.016;2024-01-10T01:44:52;16.83;;;15.63;;
84996;SDS011;75312;47.528;19.016;2024-01-10T01:45:27;16.47;;;15.37;;
84996;SDS011;75312;47.528;19.016;2024-01-10T01:45:58;16.47;;;15.40;;
84996;SDS011;75312;47.528;19.016;2024-01-10T01:46:29;16.43;;;15.40;;
84996;SDS011;75312;47.528;19.016;2024-01-10T01:47:01;16.93;;;15.83;;
84996;SDS011;75312;47.528;19.016;2024-01-10T01:47:33;17.33;;;15.90;;
84996;SDS011;75312;47.528;19.016;2024-01-10T01:48:06;16.93;;;15.77;;
84996;SDS011;75312;47.528;19.016;2024-01-10T01:48:37;16.27;;;15.30;;
84996;SDS011;75312;47.528;19.016;2024-01-10T01:49:08;16.90;;;16.00;;
84996;SDS011;75312;47.528;19.016;2024-01-10T01:49:40;16.47;;;15.43;;
84996;SDS011;75312;47.528;19.016;2024-01-10T01:50:15;17.00;;;15.83;;
84996;SDS011;75312;47.528;19.016;2024-01-10T01:50:47;16.70;;;15.37;;
84996;SDS011;75312;47.528;19.016;2024-01-10T01:51:24;15.90;;;14.77;;
84996;SDS011;75312;47.528;19.016;2024-01-10T01:51:58;15.63;;;14.53;;
84996;SDS011;75312;47.528;19.016;2024-01-10T01:52:32;16.83;;;15.63;;
84996;SDS011;75312;47.528;19.016;2024-01-10T01:53:06;16.50;;;15.30;;
84996;SDS011;75312;47.528;19.016;2024-01-10T01:53:38;16.43;;;15.23;;
84996;SDS011;75312;47.528;19.016;2024-01-10T01:54:11;16.23;;;15.00;;
84996;SDS011;75312;47.528;19.016;2024-01-10T01:54:41;15.20;;;14.23;;
84996;SDS011;75312;47.528;19.016;2024-01-10T01:55:12;15.80;;;14.80;;
84996;SDS011;75312;47.528;19.016;2024-01-10T01:55:43;16.63;;;15.60;;
84996;SDS011;75312;47.528;19.016;2024-01-10T01:56:21;16.33;;;15.43;;
84996;SDS011;75312;47.528;19.016;2024-01-10T01:56:54;16.67;;;15.30;;
84996;SDS011;75312;47.528;19.016;2024-01-10T01:57:25;16.83;;;15.33;;
84996;SDS011;75312;47.528;19.016;2024-01-10T01:57:56;16.53;;;15.03;;
84996;SDS011;75312;47.528;19.016;2024-01-10T01:58:26;16.07;;;14.67;;
84996;SDS011;75312;47.528;19.016;2024-01-10T01:58:57;15.60;;;14.33;;
84996;SDS011;75312;47.528;19.016;2024-01-10T01:59:28;16.53;;;15.27;;
84996;SDS011;75312;47.528;19.016;2024-01-10T02:00:04;16.47;;;15.23;;
84996;SDS011;75312;47.528;19.016;2024-01-10T02:00:35;15.27;;;14.20;;
84996;SDS011;75312;47.528;19.016;2024-01-10T02:01:07;15.07;;;14.13;;
84996;SDS011;75312;47.528;19.016;2024-01-10T02:01:42;15.43;;;14.43;;
84996;SDS011;75312;47.528;19.016;2024-01-10T02:02:16;16.03;;;15.03;;
84996;SDS011;75312;47.528;19.016;2024-01-10T02:02:48;16.07;;;14.97;;
84996;SDS011;75312;47.528;19.016;2024-01-10T02:03:21;15.83;;;14.53;;
84996;SDS011;75312;47.528;19.016;2024-01-10T02:03:51;15.73;;;14.47;;
84996;SDS011;75312;47.528;19.016;2024-01-10T02:04:22;15.50;;;14.17;;
84996;SDS011;75312;47.528;19.016;2024-01-10T02:04:53;16.10;;;14.77;;
84996;SDS011;75312;47.528;19.016;2024-01-10T02:05:25;16.27;;;15.03;;
84996;SDS011;75312;47.528;19.016;2024-01-10T02:05:56;15.90;;;14.77;;
84996;SDS011;75312;47.528;19.016;2024-01-10T02:06:27;15.87;;;14.63;;
84996;SDS011;75312;47.528;19.016;2024-01-10T02:07:01;16.90;;;15.40;;
84996;SDS011;75312;47.528;19.016;2024-01-10T02:07:34;15.80;;;14.30;;
84996;SDS011;75312;47.528;19.016;2024-01-10T02:08:05;16.10;;;14.70;;
84996;SDS011;75312;47.528;19.016;2024-01-10T02:08:39;15.73;;;14.70;;
84996;SDS011;75312;47.528;19.016;2024-01-10T02:09:12;16.30;;;15.20;;
84996;SDS011;75312;47.528;19.016;2024-01-10T02:09:44;16.23;;;14.97;;
84996;SDS011;75312;47.528;19.016;2024-01-10T02:10:14;15.20;;;14.03;;
84996;SDS011;75312;47.528;19.016;2024-01-10T02:10:45;15.37;;;14.20;;
84996;SDS011;75312;47.528;19.016;2024-01-10T02:11:16;16.07;;;14.57;;
84996;SDS011;75312;47.528;19.016;2024-01-10T02:11:46;16.57;;;15.07;;
84996;SDS011;75312;47.528;19.016;2024-01-10T02:12:18;16.93;;;15.53;;
84996;SDS011;75312;47.528;19.016;2024-01-10T02:12:51;16.23;;;15.00;;
84996;SDS011;75312;47.528;19.016;2024-01-10T02:13:21;15.73;;;14.50;;
84996;SDS011;75312;47.528;19.016;2024-01-10T02:13:52;16.17;;;14.80;;
84996;SDS011;75312;47.528;19.016;2024-01-10T02:14:26;15.73;;;14.23;;
84996;SDS011;75312;47.528;19.016;2024-01-10T02:14:56;16.30;;;14.63;;
84996;SDS011;75312;47.528;19.016;2024-01-10T02:15:27;15.90;;;14.20;;
84996;SDS011;75312;47.528;19.016;2024-01-10T02:16:01;15.80;;;14.40;;
84996;SDS011;75312;47.528;19.016;2024-01-10T02:16:33;14.10;;;12.93;;
84996;SDS011;75312;47.528;19.016;2024-01-10T02:17:06;14.00;;;12.97;;
84996;SDS011;75312;47.528;19.016;2024-01-10T02:17:41;13.80;;;12.83;;
84996;SDS011;75312;47.528;19.016;2024-01-10T02:18:14;14.43;;;13.47;;
84996;SDS011;75312;47.528;19.016;2024-01-10T02:18:47;13.37;;;12.37;;
84996;SDS011;75312;47.528;19.016;2024-01-10T02:19:21;14.50;;;13.30;;
84996;SDS011;75312;47.528;19.016;2024-01-10T02:20:43;15.90;;;14.53;;
84996;SDS011;75312;47.528;19.016;2024-01-10T02:21:15;14.93;;;13.67;;
84996;SDS011;75312;47.528;19.016;2024-01-10T02:21:45;13.90;;;12.80;;
84996;SDS011;75312;47.528;19.016;2024-01-10T02:22:16;14.33;;;13.07;;
84996;SDS011;75312;47.528;19.016;2024-01-10T02:22:49;14.97;;;13.80;;
84996;SDS011;75312;47.528;19.016;2024-01-10T02:23:20;14.47;;;13.27;;
84996;SDS011;75312;47.528;19.016;2024-01-10T02:23:54;14.57;;;13.37;;
84996;SDS011;75312;47.528;19.016;2024-01-10T02:24:24;15.00;;;13.80;;
84996;SDS011;75312;47.528;19.016;2024-01-10T02:24:58;14.27;;;13.13;;
84996;SDS011;75312;47.528;19.016;2024-01-10T02:25:28;14.37;;;13.17;;
84996;SDS011;75312;47.528;19.016;2024-01-10T02:25:59;14.70;;;13.37;;
84996;SDS011;75312;47.528;19.016;2024-01-10T02:26:30;14.77;;;13.53;;
84996;SDS011;75312;47.528;19.016;2024-01-10T02:27:00;14.57;;;13.50;;
84996;SDS011;75312;47.528;19.016;2024-01-10T02:27:32;14.00;;;13.03;;
84996;SDS011;75312;47.528;19.016;2024-01-10T02:28:03;13.73;;;12.80;;
84996;SDS011;75312;47.528;19.016;2024-01-10T02:28:35;13.13;;;12.37;;
84996;SDS011;75312;47.528;19.016;2024-01-10T02:29:05;12.43;;;11.77;;
84996;SDS011;75312;47.528;19.016;2024-01-10T02:29:36;13.13;;;12.50;;
84996;SDS011;75312;47.528;19.016;2024-01-10T02:30:09;13.03;;;12.17;;
84996;SDS011;75312;47.528;19.016;2024-01-10T02:30:41;13.93;;;12.83;;
84996;SDS011;75312;47.528;19.016;2024-01-10T02:31:11;14.87;;;13.53;;
84996;SDS011;75312;47.528;19.016;2024-01-10T02:31:44;15.20;;;14.03;;
84996;SDS011;75312;47.528;19.016;2024-01-10T02:32:15;15.40;;;14.23;;
84996;SDS011;75312;47.528;19.016;2024-01-10T02:32:45;14.87;;;13.67;;
84996;SDS011;75312;47.528;19.016;2024-01-10T02:33:18;14.77;;;13.47;;
84996;SDS011;75312;47.528;19.016;2024-01-10T02:33:52;15.70;;;14.27;;
84996;SDS011;75312;47.528;19.016;2024-01-10T02:34:25;15.90;;;14.43;;
84996;SDS011;75312;47.528;19.016;2024-01-10T02:34:55;15.57;;;14.00;;
84996;SDS011;75312;47.528;19.016;2024-01-10T02:35:26;15.80;;;14.17;;
84996;SDS011;75312;47.528;19.016;2024-01-10T02:35:59;17.03;;;15.23;;
84996;SDS011;75312;47.528;19.016;2024-01-10T02:36:30;15.40;;;14.07;;
84996;SDS011;75312;47.528;19.016;2024-01-10T02:37:03;14.73;;;13.63;;
84996;SDS011;75312;47.528;19.016;2024-01-10T02:37:37;15.17;;;13.90;;
84996;SDS011;75312;47.528;19.016;2024-01-10T02:38:08;15.43;;;14.17;;
84996;SDS011;75312;47.528;19.016;2024-01-10T02:38:40;14.57;;;13.43;;
84996;SDS011;75312;47.528;19.016;2024-01-10T02:39:13;15.13;;;14.07;;
84996;SDS011;75312;47.528;19.016;2024-01-10T02:39:46;14.97;;;13.93;;
84996;SDS011;75312;47.528;19.016;2024-01-10T02:40:19;15.30;;;14.27;;
84996;SDS011;75312;47.528;19.016;2024-01-10T02:40:50;15.37;;;14.37;;
84996;SDS011;75312;47.528;19.016;2024-01-10T02:41:21;14.50;;;13.53;;
84996;SDS011;75312;47.528;19.016;2024-01-10T02:41:51;14.27;;;13.30;;
84996;SDS011;75312;47.528;19.016;2024-01-10T02:42:22;16.00;;;14.87;;
84996;SDS011;75312;47.528;19.016;2024-01-10T02:42:55;17.07;;;15.47;;
84996;SDS011;75312;47.528;19.016;2024-01-10T02:43:26;15.87;;;14.50;;
84996;SDS011;75312;47.528;19.016;2024-01-10T02:43:56;16.33;;;14.93;;
84996;SDS011;75312;47.528;19.016;2024-01-10T02:44:29;15.83;;;14.50;;
84996;SDS011;75312;47.528;19.016;2024-01-10T02:45:00;16.03;;;14.63;;
84996;SDS011;75312;47.528;19.016;2024-01-10T02:45:30;16.03;;;14.47;;
84996;SDS011;75312;47.528;19.016;2024-01-10T02:46:01;16.90;;;15.20;;
84996;SDS011;75312;47.528;19.016;2024-01-10T02:46:37;16.37;;;14.80;;
84996;SDS011;75312;47.528;19.016;2024-01-10T02:47:10;15.97;;;14.47;;
84996;SDS011;75312;47.528;19.016;2024-01-10T02:47:42;17.23;;;15.43;;
84996;SDS011;75312;47.528;19.016;2024-01-10T02:48:12;17.83;;;16.27;;
84996;SDS011;75312;47.528;19.016;2024-01-10T02:48:45;16.97;;;15.50;;
84996;SDS011;75312;47.528;19.016;2024-01-10T02:49:16;16.13;;;15.03;;
84996;SDS011;75312;47.528;19.016;2024-01-10T02:49:48;15.93;;;14.80;;
84996;SDS011;75312;47.528;19.016;2024-01-10T02:50:19;15.90;;;14.73;;
84996;SDS011;75312;47.528;19.016;2024-01-10T02:50:52;14.87;;;13.80;;
84996;SDS011;75312;47.528;19.016;2024-01-10T02:51:26;15.87;;;14.57;;
84996;SDS011;75312;47.528;19.016;2024-01-10T02:52:00;15.90;;;14.70;;
84996;SDS011;75312;47.528;19.016;2024-01-10T02:52:34;14.60;;;13.57;;
84996;SDS011;75312;47.528;19.016;2024-01-10T02:53:04;16.23;;;14.97;;
84996;SDS011;75312;47.528;19.016;2024-01-10T02:53:35;16.20;;;14.90;;
84996;SDS011;75312;47.528;19.016;2024-01-10T02:54:06;15.40;;;14.27;;
84996;SDS011;75312;47.528;19.016;2024-01-10T02:54:36;15.33;;;14.30;;
84996;SDS011;75312;47.528;19.016;2024-01-10T02:55:09;15.20;;;14.17;;
84996;SDS011;75312;47.528;19.016;2024-01-10T02:55:42;15.63;;;14.50;;
84996;SDS011;75312;47.528;19.016;2024-01-10T02:56:13;15.00;;;13.87;;
84996;SDS011;75312;47.528;19.016;2024-01-10T02:56:44;15.00;;;13.83;;
84996;SDS011;75312;47.528;19.016;2024-01-10T02:57:14;15.73;;;14.73;;
84996;SDS011;75312;47.528;19.016;2024-01-10T02:57:45;15.10;;;14.27;;
84996;SDS011;75312;47.528;19.016;2024-01-10T02:58:18;14.70;;;13.83;;
84996;SDS011;75312;47.528;19.016;2024-01-10T02:58:52;15.50;;;14.47;;
84996;SDS011;75312;47.528;19.016;2024-01-10T02:59:23;15.70;;;14.73;;
84996;SDS011;75312;47.528;19.016;2024-01-10T02:59:53;14.60;;;13.90;;
84996;SDS011;75312;47.528;19.016;2024-01-10T03:00:26;14.57;;;13.87;;
84996;SDS011;75312;47.528;19.016;2024-01-10T03:01:00;14.93;;;14.07;;
84996;SDS011;75312;47.528;19.016;2024-01-10T03:01:31;15.43;;;14.47;;
84996;SDS011;75312;47.528;19.016;2024-01-10T03:02:02;15.17;;;14.30;;
84996;SDS011;75312;47.528;19.016;2024-01-10T03:02:32;15.07;;;14.23;;
84996;SDS011;75312;47.528;19.016;2024-01-10T03:03:03;16.10;;;15.03;;
84996;SDS011;75312;47.528;19.016;2024-01-10T03:03:33;16.03;;;14.90;;
84996;SDS011;75312;47.528;19.016;2024-01-10T03:04:04;15.47;;;14.33;;
84996;SDS011;75312;47.528;19.016;2024-01-10T03:04:35;15.43;;;14.37;;